Rock Springs Sweetwater County Airport
KRKS : rendu visible

Aérodrome :











RETROUVEZ-NOUS SUR...

 
LOGIN :

S'inscrire | Disclaimer

   EN    FR    IT 

 









Légende :    VFR   VFR Marginal   IFR   IFR Intensif   IFR Très Intensif
Visi : 
Plafond : 
>= 8 km
>= 3000ft
5 à 8 km
1000 à 3000 ft
1500m à 5 km
500 à 1000 ft
800 à 1500m
200 à 500 ft
< 800m
< 200 ft
Symboles :   Orages  Brouillard  Fortes neiges  Fortes précipitations  Vent > 20 kt






- Altitude de l'aérodrome : 6764 ft
- Code IATA : RKS


KRKS - Rock Springs Sweetwater County

DERNIER METAR :
  • 191254Z AUTO 00000KT 10SM BKN060 BKN070 OVC085 M02/M08 A2998 RMK AO2 SLP160 T10221078

METARs EXPIRÉS :
  • 191154Z AUTO 28004KT 10SM CLR M01/M08 A2997 RMK AO2 SLP151 T10111078 10006 21028 55004
  • 191054Z AUTO 19007KT 10SM CLR M02/M08 A2997 RMK AO2 SLP148 T10221078

TAF KRKS
Valide du 19 à 13h jusqu'au 20 à 12h UTC


191239Z 1913/2012 24011KT P6SM BKN050
FM191600 25014G24KT P6SM SCT070
FM200000 25015G25KT P6SM VCSH SCT035 BKN050
FM200100 25015G25KT 2SM -SHSN BKN022
FM200600 26022G32KT P6SM VCSH SCT022 BKN040
FM200900 26024G34KT P6SM SCT025 BKN060



MET'MAP, la Météo Aéronautique d'un coup d'oeil ! - Copyright ORBIFLY Décembre 2007 - Disclaimer

ORBIFLY MET'MAP TEAM :

Programmation & Développement : Alexandra Zaïnal
Conception & Développement : Baudouin d'Aumeries
Co-Programmation & Développement : Marc-Olivier Méhu
Soutien technique & logistique : Manuel Goepfert

Contact : metmap@orbifly.com




SOURCES & CREDITS :

   NOAA       Earth
Advisory